Time;durP1;ratioP1;P1;durP2;ratioP2;P2;SDS_P1;SDS_P2;PMS_P1;PMS_P2;Temp;Humidity;BMP_temperature;BMP_pressure;BME280_temperature;BME280_humidity;BME280_pressure;Samples;Min_cycle;Max_cycle;Signal;HPM_P1;HPM_P2
2022/01/19 00:00:44;;;;;;;9.03;4.67;;;;;;;;;;5050801;28;20438;-65
2022/01/19 00:03:11;;;;;;;10.20;6.03;;;;;;;;;;5050751;28;20487;-66
2022/01/19 00:05:38;;;;;;;10.13;4.87;;;;;;;;;;5050989;28;20835;-65
2022/01/19 00:08:04;;;;;;;9.70;4.63;;;;;;;;;;5050518;28;20441;-66
2022/01/19 00:10:31;;;;;;;9.27;5.30;;;;;;;;;;5050660;28;20460;-65
2022/01/19 00:12:58;;;;;;;9.30;5.37;;;;;;;;;;5050368;28;20475;-66
2022/01/19 00:15:25;;;;;;;9.60;5.23;;;;;;;;;;5050553;28;20458;-66
2022/01/19 00:17:56;;;;;;;7.57;5.07;;;;;;;;;;5050782;28;20441;-66
2022/01/19 00:20:22;;;;;;;16.13;4.97;;;;;;;;;;5050420;28;20459;-66
2022/01/19 00:22:49;;;;;;;8.23;4.77;;;;;;;;;;5050565;28;20440;-66
2022/01/19 00:25:16;;;;;;;8.73;4.23;;;;;;;;;;5050485;28;20429;-66
2022/01/19 00:27:42;;;;;;;12.03;5.37;;;;;;;;;;5050153;28;20837;-66
2022/01/19 00:30:09;;;;;;;7.27;4.10;;;;;;;;;;5050513;28;20452;-65
2022/01/19 00:32:35;;;;;;;8.00;4.90;;;;;;;;;;5016113;28;20500;-66
2022/01/19 00:35:02;;;;;;;7.13;4.27;;;;;;;;;;5032275;28;21282;-66
2022/01/19 00:37:29;;;;;;;8.87;4.33;;;;;;;;;;5032126;28;20467;-66
2022/01/19 00:39:56;;;;;;;7.77;3.40;;;;;;;;;;5050228;28;20436;-65
2022/01/19 00:42:24;;;;;;;7.23;4.33;;;;;;;;;;5032175;28;20968;-65
2022/01/19 00:44:50;;;;;;;4.50;2.30;;;;;;;;;;5031993;28;20532;-66
2022/01/19 00:47:17;;;;;;;9.50;3.60;;;;;;;;;;5050148;28;20433;-66
2022/01/19 00:49:45;;;;;;;4.40;3.07;;;;;;;;;;5050018;28;20434;-66
2022/01/19 00:52:12;;;;;;;9.23;3.87;;;;;;;;;;5031642;28;20570;-66
2022/01/19 00:54:39;;;;;;;6.27;3.07;;;;;;;;;;5048615;28;20477;-66
2022/01/19 00:57:06;;;;;;;9.37;4.43;;;;;;;;;;5049853;28;20422;-66
2022/01/19 00:59:32;;;;;;;8.77;3.80;;;;;;;;;;5031948;28;20449;-66
2022/01/19 01:01:59;;;;;;;6.73;3.73;;;;;;;;;;5049642;28;20475;-66
2022/01/19 01:39:44;;;;;;;6.50;3.73;;;;;;;;;;4770675;28;20486;-65
2022/01/19 01:42:11;;;;;;;7.00;3.30;;;;;;;;;;5050207;28;20448;-66
2022/01/19 01:44:39;;;;;;;7.33;3.97;;;;;;;;;;5051194;28;20531;-66
2022/01/19 01:47:06;;;;;;;4.80;2.77;;;;;;;;;;5050716;28;20444;-66
2022/01/19 01:55:10;;;;;;;10.13;4.17;;;;;;;;;;5049904;28;20598;-66
2022/01/19 01:57:37;;;;;;;10.50;4.17;;;;;;;;;;5043835;28;20484;-66
2022/01/19 02:00:05;;;;;;;8.80;4.20;;;;;;;;;;5031340;28;20909;-66
2022/01/19 02:02:44;;;;;;;8.23;3.47;;;;;;;;;;5048917;28;20427;-66
2022/01/19 02:05:14;;;;;;;10.73;4.73;;;;;;;;;;5030549;28;20469;-66
2022/01/19 02:07:59;;;;;;;11.53;4.40;;;;;;;;;;5030968;28;20974;-66
2022/01/19 02:16:08;;;;;;;13.57;4.80;;;;;;;;;;5048358;28;20455;-66
2022/01/19 02:24:16;;;;;;;10.90;4.50;;;;;;;;;;5049589;28;20452;-66
2022/01/19 02:27:01;;;;;;;8.60;4.20;;;;;;;;;;5033055;28;20444;-66
2022/01/19 02:40:26;;;;;;;7.17;4.87;;;;;;;;;;5009162;28;20874;-66
2022/01/19 02:43:04;;;;;;;10.83;5.50;;;;;;;;;;5008542;28;20997;-66
2022/01/19 02:51:02;;;;;;;10.27;5.23;;;;;;;;;;5007557;28;20442;-66
2022/01/19 02:53:28;;;;;;;12.77;5.83;;;;;;;;;;5023528;28;20760;-66
2022/01/19 02:55:55;;;;;;;12.87;5.83;;;;;;;;;;5007241;28;20469;-66
2022/01/19 02:58:24;;;;;;;10.13;4.70;;;;;;;;;;5023523;28;20489;-66
2022/01/19 03:09:07;;;;;;;11.47;4.57;;;;;;;;;;5011029;28;20435;-66
2022/01/19 03:11:37;;;;;;;10.07;5.00;;;;;;;;;;5012459;28;20435;-66
2022/01/19 03:14:07;;;;;;;10.83;6.13;;;;;;;;;;5011712;28;20474;-66
2022/01/19 03:16:35;;;;;;;11.33;5.87;;;;;;;;;;5012206;28;20435;-66
2022/01/19 03:19:02;;;;;;;10.33;6.30;;;;;;;;;;5011885;28;20786;-66
2022/01/19 03:21:29;;;;;;;7.80;5.23;;;;;;;;;;5005423;28;20451;-66
2022/01/19 03:23:57;;;;;;;9.63;6.20;;;;;;;;;;5011207;28;20476;-66
2022/01/19 03:26:23;;;;;;;6.50;3.20;;;;;;;;;;5026949;28;20457;-66
2022/01/19 03:29:14;;;;;;;7.13;4.90;;;;;;;;;;5010579;28;20944;-65
2022/01/19 03:31:41;;;;;;;9.97;6.27;;;;;;;;;;5010483;28;20454;-66
2022/01/19 03:34:11;;;;;;;13.87;6.70;;;;;;;;;;5010268;28;20514;-66
2022/01/19 03:36:39;;;;;;;9.43;5.93;;;;;;;;;;5015258;28;20454;-66
2022/01/19 03:39:06;;;;;;;8.93;5.67;;;;;;;;;;5017322;28;21187;-66
2022/01/19 03:41:33;;;;;;;14.23;6.03;;;;;;;;;;5030238;28;20473;-66
2022/01/19 03:43:59;;;;;;;10.83;6.10;;;;;;;;;;5046408;28;20485;-66
2022/01/19 03:46:33;;;;;;;9.63;5.90;;;;;;;;;;5030924;28;20449;-66
2022/01/19 03:49:10;;;;;;;5.53;3.80;;;;;;;;;;5029554;28;20438;-66
2022/01/19 03:51:37;;;;;;;11.83;6.37;;;;;;;;;;5029840;28;20532;-66
2022/01/19 03:54:05;;;;;;;12.20;6.73;;;;;;;;;;5043918;28;20466;-66
2022/01/19 03:56:32;;;;;;;13.10;4.30;;;;;;;;;;5029973;28;20434;-66
2022/01/19 03:58:59;;;;;;;11.03;5.20;;;;;;;;;;5029506;28;20434;-66
2022/01/19 04:01:26;;;;;;;13.97;7.80;;;;;;;;;;5029672;28;20449;-66
2022/01/19 04:09:23;;;;;;;16.53;6.13;;;;;;;;;;5029594;28;20460;-66
2022/01/19 04:11:51;;;;;;;12.97;6.40;;;;;;;;;;5043587;28;20450;-66
2022/01/19 04:14:25;;;;;;;13.37;6.43;;;;;;;;;;5029157;28;21107;-66
2022/01/19 04:17:00;;;;;;;12.30;7.03;;;;;;;;;;5029218;28;20455;-66
2022/01/19 04:19:32;;;;;;;9.20;5.50;;;;;;;;;;5029031;28;20529;-66
2022/01/19 04:22:03;;;;;;;10.20;5.03;;;;;;;;;;5029260;28;20488;-66
2022/01/19 04:24:32;;;;;;;11.20;5.60;;;;;;;;;;5029476;28;20454;-66
2022/01/19 04:32:30;;;;;;;9.53;5.90;;;;;;;;;;5049066;28;20454;-66
2022/01/19 04:34:59;;;;;;;15.57;6.03;;;;;;;;;;5048846;28;20839;-67
2022/01/19 04:37:37;;;;;;;11.63;6.17;;;;;;;;;;5040041;28;20597;-66
2022/01/19 05:04:46;;;;;;;12.43;6.10;;;;;;;;;;5047633;28;20444;-66
2022/01/19 05:07:36;;;;;;;17.40;7.07;;;;;;;;;;5051260;28;21014;-67
2022/01/19 05:15:18;;;;;;;10.67;5.57;;;;;;;;;;5053468;28;20484;-66
2022/01/19 05:17:45;;;;;;;17.27;10.33;;;;;;;;;;5054240;28;20509;-65
2022/01/19 05:20:12;;;;;;;14.87;7.47;;;;;;;;;;5050818;28;21099;-66
2022/01/19 05:22:39;;;;;;;15.93;7.40;;;;;;;;;;5047778;28;21174;-64
2022/01/19 05:25:15;;;;;;;15.97;9.07;;;;;;;;;;5053817;28;21024;-66
2022/01/19 05:27:48;;;;;;;14.83;7.80;;;;;;;;;;5057651;28;20458;-67
2022/01/19 05:30:17;;;;;;;15.80;8.33;;;;;;;;;;5054346;28;20456;-66
2022/01/19 05:32:44;;;;;;;17.33;7.60;;;;;;;;;;5053567;28;20439;-66
2022/01/19 05:35:11;;;;;;;21.53;11.13;;;;;;;;;;5046156;28;20480;-66
2022/01/19 05:38:03;;;;;;;15.63;8.37;;;;;;;;;;5042476;28;20455;-66
2022/01/19 05:40:45;;;;;;;12.73;8.30;;;;;;;;;;5056316;28;21000;-68
2022/01/19 05:43:14;;;;;;;17.50;8.70;;;;;;;;;;5033380;28;20441;-67
2022/01/19 05:45:40;;;;;;;20.33;10.33;;;;;;;;;;5050955;28;21039;-66
2022/01/19 05:48:16;;;;;;;18.47;10.07;;;;;;;;;;5048574;28;20907;-68
2022/01/19 05:50:48;;;;;;;22.60;9.23;;;;;;;;;;5037870;28;20501;-66
2022/01/19 05:53:18;;;;;;;17.80;8.73;;;;;;;;;;5057299;28;20559;-68
2022/01/19 05:55:45;;;;;;;14.23;7.27;;;;;;;;;;5045857;28;21134;-67
2022/01/19 05:58:12;;;;;;;20.80;9.07;;;;;;;;;;5054300;28;20483;-66
2022/01/19 06:00:40;;;;;;;15.93;8.53;;;;;;;;;;5034747;28;20505;-68
2022/01/19 06:03:09;;;;;;;17.27;7.87;;;;;;;;;;5059337;28;20464;-68
2022/01/19 06:06:09;;;;;;;11.70;4.97;;;;;;;;;;5003440;28;20441;-67
2022/01/19 06:08:45;;;;;;;15.33;7.90;;;;;;;;;;5052619;28;20456;-67
2022/01/19 06:11:14;;;;;;;14.07;6.63;;;;;;;;;;5057452;28;20478;-67
2022/01/19 06:13:43;;;;;;;19.83;9.33;;;;;;;;;;5053785;28;20449;-66
2022/01/19 06:16:10;;;;;;;13.97;5.63;;;;;;;;;;5058052;28;20878;-66
2022/01/19 06:18:40;;;;;;;14.27;6.63;;;;;;;;;;5057299;28;20619;-64
2022/01/19 06:21:07;;;;;;;16.47;8.60;;;;;;;;;;5054052;28;20448;-67
2022/01/19 06:23:39;;;;;;;18.70;8.43;;;;;;;;;;5051676;28;20495;-63
2022/01/19 06:26:08;;;;;;;18.20;8.87;;;;;;;;;;5047367;28;20468;-66
2022/01/19 06:28:36;;;;;;;13.47;7.60;;;;;;;;;;5051839;28;20959;-66
2022/01/19 06:31:03;;;;;;;8.10;4.97;;;;;;;;;;5052924;28;20539;-65
2022/01/19 06:33:30;;;;;;;14.30;7.83;;;;;;;;;;5045408;28;20446;-67
2022/01/19 06:35:57;;;;;;;15.77;5.97;;;;;;;;;;5051165;28;21005;-65
2022/01/19 06:38:44;;;;;;;14.97;7.17;;;;;;;;;;5025119;28;20544;-65
2022/01/19 06:41:23;;;;;;;20.83;8.00;;;;;;;;;;5052590;28;20529;-67
2022/01/19 06:43:50;;;;;;;14.63;7.23;;;;;;;;;;5040341;28;20439;-66
2022/01/19 06:46:17;;;;;;;14.23;7.60;;;;;;;;;;5056632;28;20450;-65
2022/01/19 06:48:45;;;;;;;10.20;5.07;;;;;;;;;;5055012;28;20454;-65
2022/01/19 06:51:13;;;;;;;15.87;8.70;;;;;;;;;;5075974;28;20455;-65
2022/01/19 06:53:45;;;;;;;19.23;9.13;;;;;;;;;;5064698;28;20456;-64
2022/01/19 06:56:17;;;;;;;16.67;8.07;;;;;;;;;;5062128;28;20482;-63
2022/01/19 06:58:45;;;;;;;19.90;9.30;;;;;;;;;;5057109;28;20477;-65
2022/01/19 07:01:32;;;;;;;19.53;10.13;;;;;;;;;;5074983;28;20446;-65
2022/01/19 07:04:26;;;;;;;17.83;8.70;;;;;;;;;;5037197;28;20436;-65
2022/01/19 07:06:54;;;;;;;20.43;9.97;;;;;;;;;;5049142;28;20441;-65
2022/01/19 07:09:47;;;;;;;20.93;9.43;;;;;;;;;;5043274;28;20446;-64
2022/01/19 07:12:14;;;;;;;19.63;9.60;;;;;;;;;;5036623;28;20532;-64
2022/01/19 07:14:42;;;;;;;18.17;10.00;;;;;;;;;;5050330;28;20468;-64
2022/01/19 07:17:09;;;;;;;15.83;8.40;;;;;;;;;;5034575;28;20443;-65
2022/01/19 07:19:37;;;;;;;19.37;9.47;;;;;;;;;;5051871;28;20423;-65
2022/01/19 07:22:09;;;;;;;17.87;7.93;;;;;;;;;;5033934;28;20477;-64
2022/01/19 07:24:36;;;;;;;20.67;9.53;;;;;;;;;;5037259;28;20444;-65
2022/01/19 07:27:04;;;;;;;16.70;9.53;;;;;;;;;;5054089;28;21113;-64
2022/01/19 07:29:31;;;;;;;17.03;8.97;;;;;;;;;;5049297;28;20453;-64
2022/01/19 07:31:59;;;;;;;19.67;10.43;;;;;;;;;;5034240;28;20441;-65
2022/01/19 07:34:29;;;;;;;19.57;10.63;;;;;;;;;;5033426;28;20477;-64
2022/01/19 07:36:58;;;;;;;23.30;10.87;;;;;;;;;;5058630;28;20447;-64
2022/01/19 07:39:25;;;;;;;21.10;10.77;;;;;;;;;;5048814;28;21448;-64
2022/01/19 07:41:55;;;;;;;19.73;10.67;;;;;;;;;;5068939;28;20429;-64
2022/01/19 07:44:40;;;;;;;17.37;9.70;;;;;;;;;;5051395;28;20773;-65
2022/01/19 07:47:28;;;;;;;16.53;9.00;;;;;;;;;;5050485;28;20445;-64
2022/01/19 07:50:16;;;;;;;22.23;11.17;;;;;;;;;;5039144;28;20804;-65
2022/01/19 07:53:03;;;;;;;18.73;10.67;;;;;;;;;;5018472;28;20441;-63
2022/01/19 07:55:39;;;;;;;18.27;10.00;;;;;;;;;;5036103;28;20984;-64
2022/01/19 07:58:26;;;;;;;21.47;11.67;;;;;;;;;;5021844;28;21303;-64
2022/01/19 08:01:13;;;;;;;19.30;11.07;;;;;;;;;;5043285;28;20448;-65
2022/01/19 08:03:52;;;;;;;22.97;11.73;;;;;;;;;;5032804;28;20534;-65
2022/01/19 08:06:25;;;;;;;25.03;13.37;;;;;;;;;;5034184;28;20441;-65
2022/01/19 08:08:54;;;;;;;24.70;12.53;;;;;;;;;;5070407;28;20476;-65
2022/01/19 08:11:21;;;;;;;25.07;13.03;;;;;;;;;;5052397;28;20814;-65
2022/01/19 08:13:53;;;;;;;20.63;10.80;;;;;;;;;;5052465;28;20523;-65
2022/01/19 08:16:21;;;;;;;25.90;13.70;;;;;;;;;;5031268;28;20477;-65
2022/01/19 08:18:48;;;;;;;27.63;14.40;;;;;;;;;;5052407;28;20951;-64
2022/01/19 08:21:18;;;;;;;21.63;10.50;;;;;;;;;;5050230;28;21375;-64
2022/01/19 08:23:52;;;;;;;24.83;12.77;;;;;;;;;;5036576;28;21825;-66
2022/01/19 08:26:20;;;;;;;25.40;11.03;;;;;;;;;;5049002;28;20445;-65
2022/01/19 08:28:50;;;;;;;20.23;12.17;;;;;;;;;;5070984;28;20435;-66
2022/01/19 08:31:17;;;;;;;22.97;12.53;;;;;;;;;;5054118;28;21274;-65
2022/01/19 08:34:22;;;;;;;22.70;12.33;;;;;;;;;;5012887;28;20472;-66
2022/01/19 08:37:28;;;;;;;25.70;11.67;;;;;;;;;;4933077;29;20465;-66
2022/01/19 08:39:59;;;;;;;20.93;11.90;;;;;;;;;;4967428;28;20523;-66
2022/01/19 08:42:27;;;;;;;22.00;12.43;;;;;;;;;;4990230;28;20455;-66
2022/01/19 08:44:53;;;;;;;21.83;11.23;;;;;;;;;;5033030;28;20477;-67
2022/01/19 08:47:24;;;;;;;23.27;12.73;;;;;;;;;;5027823;28;20488;-68
2022/01/19 08:50:10;;;;;;;21.03;11.40;;;;;;;;;;5029967;28;20487;-67
2022/01/19 08:52:47;;;;;;;24.93;13.03;;;;;;;;;;5030658;28;20969;-67
2022/01/19 08:55:25;;;;;;;24.47;8.37;;;;;;;;;;5011568;28;20560;-65
2022/01/19 08:57:52;;;;;;;14.87;7.87;;;;;;;;;;5010182;28;20476;-64
2022/01/19 09:00:19;;;;;;;19.07;12.23;;;;;;;;;;5026803;28;20503;-65
2022/01/19 09:02:46;;;;;;;18.77;11.23;;;;;;;;;;5028778;28;20569;-68
2022/01/19 09:05:13;;;;;;;18.93;9.50;;;;;;;;;;5010179;28;20556;-65
2022/01/19 09:07:40;;;;;;;19.90;11.40;;;;;;;;;;5033082;28;20604;-66
2022/01/19 09:10:07;;;;;;;20.43;10.10;;;;;;;;;;5035292;28;20823;-64
2022/01/19 09:12:34;;;;;;;19.17;9.87;;;;;;;;;;5031881;28;20903;-64
2022/01/19 09:15:02;;;;;;;14.93;7.13;;;;;;;;;;5029953;28;20426;-65
2022/01/19 09:17:29;;;;;;;20.77;10.50;;;;;;;;;;5032046;28;20437;-66
2022/01/19 09:19:55;;;;;;;27.07;13.67;;;;;;;;;;5022012;28;20429;-66
2022/01/19 09:22:22;;;;;;;14.33;8.30;;;;;;;;;;5025953;28;20445;-67
2022/01/19 09:24:49;;;;;;;28.23;13.43;;;;;;;;;;5024670;28;20431;-66
2022/01/19 09:27:18;;;;;;;27.60;12.80;;;;;;;;;;5024419;28;20445;-66
2022/01/19 09:29:45;;;;;;;21.63;10.73;;;;;;;;;;5024839;28;21072;-66
2022/01/19 09:32:18;;;;;;;17.00;9.00;;;;;;;;;;5011808;28;20444;-67
2022/01/19 09:34:54;;;;;;;12.57;6.70;;;;;;;;;;5026751;28;20434;-68
2022/01/19 09:37:24;;;;;;;29.20;13.83;;;;;;;;;;5029321;28;20480;-65
2022/01/19 09:40:10;;;;;;;22.63;12.43;;;;;;;;;;5055953;28;20468;-66
2022/01/19 09:42:37;;;;;;;16.33;7.93;;;;;;;;;;5066587;28;20436;-66
2022/01/19 09:45:05;;;;;;;16.80;7.90;;;;;;;;;;5048493;28;20436;-67
2022/01/19 09:47:32;;;;;;;23.30;11.07;;;;;;;;;;5048624;28;20430;-67
2022/01/19 09:49:59;;;;;;;20.47;11.53;;;;;;;;;;5051936;28;20783;-67
2022/01/19 09:52:26;;;;;;;21.53;11.20;;;;;;;;;;5063511;28;20449;-68
2022/01/19 09:54:53;;;;;;;14.87;9.17;;;;;;;;;;5066062;28;20463;-64
2022/01/19 09:57:20;;;;;;;18.43;9.13;;;;;;;;;;5069219;28;20472;-64
2022/01/19 09:59:47;;;;;;;11.93;5.77;;;;;;;;;;5066337;28;20499;-65
2022/01/19 10:02:15;;;;;;;15.50;7.63;;;;;;;;;;5052154;28;20457;-65
2022/01/19 10:04:44;;;;;;;14.77;7.33;;;;;;;;;;5063589;28;20440;-65
2022/01/19 10:07:17;;;;;;;18.60;9.87;;;;;;;;;;5047580;28;20464;-65
2022/01/19 10:09:57;;;;;;;20.07;10.50;;;;;;;;;;5074351;28;20450;-65
2022/01/19 10:18:07;;;;;;;20.23;9.00;;;;;;;;;;5066225;28;20455;-65
2022/01/19 10:20:34;;;;;;;19.10;8.97;;;;;;;;;;5067595;28;20444;-67
2022/01/19 10:23:01;;;;;;;14.13;7.30;;;;;;;;;;5044485;28;20485;-66
2022/01/19 10:25:46;;;;;;;22.57;10.60;;;;;;;;;;5059580;28;20451;-65
2022/01/19 10:28:12;;;;;;;14.67;7.57;;;;;;;;;;5061534;28;20484;-66
2022/01/19 10:30:39;;;;;;;17.37;9.17;;;;;;;;;;5045630;28;21282;-66
2022/01/19 10:33:06;;;;;;;17.60;8.80;;;;;;;;;;5047014;28;21245;-65
2022/01/19 10:35:33;;;;;;;14.00;7.77;;;;;;;;;;5065506;28;20445;-66
2022/01/19 10:38:19;;;;;;;16.77;9.00;;;;;;;;;;5055721;28;21194;-65
2022/01/19 10:40:56;;;;;;;10.40;6.03;;;;;;;;;;5066184;28;21335;-65
2022/01/19 10:43:34;;;;;;;16.60;9.00;;;;;;;;;;5063464;28;20508;-65
2022/01/19 10:46:22;;;;;;;17.67;8.13;;;;;;;;;;5065760;28;20989;-65
2022/01/19 10:48:55;;;;;;;21.63;10.47;;;;;;;;;;5062298;28;21066;-66
2022/01/19 10:51:22;;;;;;;18.17;8.97;;;;;;;;;;5067474;28;20457;-64
2022/01/19 10:54:08;;;;;;;21.33;10.27;;;;;;;;;;5071635;28;20484;-65
2022/01/19 10:56:35;;;;;;;22.50;10.67;;;;;;;;;;5069657;28;20502;-65
2022/01/19 10:59:09;;;;;;;21.33;10.50;;;;;;;;;;5076703;28;20472;-66
2022/01/19 11:01:44;;;;;;;19.93;9.73;;;;;;;;;;5065720;28;20474;-68
2022/01/19 11:04:23;;;;;;;13.13;7.33;;;;;;;;;;5068099;28;20958;-65
2022/01/19 11:07:11;;;;;;;20.40;10.33;;;;;;;;;;5071483;28;20447;-65
2022/01/19 11:09:45;;;;;;;21.93;10.47;;;;;;;;;;5063421;28;20437;-64
2022/01/19 11:12:15;;;;;;;12.93;7.30;;;;;;;;;;5070292;28;21146;-64
2022/01/19 11:14:42;;;;;;;13.10;7.33;;;;;;;;;;5066191;28;20427;-65
2022/01/19 11:17:29;;;;;;;20.40;10.07;;;;;;;;;;5069290;28;20482;-67
2022/01/19 11:19:55;;;;;;;17.03;9.57;;;;;;;;;;5066093;28;20954;-67
2022/01/19 11:22:22;;;;;;;17.07;8.70;;;;;;;;;;5064600;28;20479;-65
2022/01/19 11:24:55;;;;;;;13.33;6.80;;;;;;;;;;5064679;28;20879;-66
2022/01/19 11:27:23;;;;;;;17.13;6.93;;;;;;;;;;5076118;28;20435;-65
2022/01/19 11:30:08;;;;;;;11.93;6.87;;;;;;;;;;5060853;28;20438;-64
2022/01/19 11:32:37;;;;;;;15.50;8.13;;;;;;;;;;5078053;28;20490;-68
2022/01/19 11:35:04;;;;;;;16.80;7.00;;;;;;;;;;5073724;28;20463;-68
2022/01/19 11:37:35;;;;;;;15.40;8.53;;;;;;;;;;5078847;28;20479;-64
2022/01/19 11:40:11;;;;;;;15.20;8.30;;;;;;;;;;5077513;28;20940;-66
2022/01/19 11:42:38;;;;;;;18.07;8.93;;;;;;;;;;5071771;28;20439;-64
2022/01/19 11:45:06;;;;;;;18.20;9.90;;;;;;;;;;5071970;28;21027;-64
2022/01/19 11:47:33;;;;;;;15.53;7.93;;;;;;;;;;5068403;28;21012;-65
2022/01/19 11:50:01;;;;;;;16.30;7.57;;;;;;;;;;5072195;28;20502;-66
2022/01/19 11:52:32;;;;;;;22.30;11.20;;;;;;;;;;5055620;28;20451;-67
2022/01/19 11:55:18;;;;;;;18.97;9.73;;;;;;;;;;5072558;28;20439;-65
2022/01/19 11:57:45;;;;;;;17.30;7.40;;;;;;;;;;5065435;28;20483;-67
2022/01/19 12:00:16;;;;;;;11.73;5.90;;;;;;;;;;5049203;28;20455;-69
2022/01/19 12:02:45;;;;;;;21.03;7.93;;;;;;;;;;5041863;28;20496;-68
2022/01/19 12:05:36;;;;;;;20.87;11.07;;;;;;;;;;5047900;28;20479;-65
2022/01/19 12:08:20;;;;;;;19.57;8.03;;;;;;;;;;5047069;28;20519;-65
2022/01/19 12:10:49;;;;;;;23.83;11.63;;;;;;;;;;5050336;28;20795;-65
2022/01/19 12:13:55;;;;;;;24.40;12.33;;;;;;;;;;5068996;28;20440;-64
2022/01/19 12:19:07;;;;;;;22.73;11.93;;;;;;;;;;5053305;28;21069;-67
2022/01/19 12:21:34;;;;;;;24.10;12.13;;;;;;;;;;5053011;28;20975;-67
2022/01/19 12:24:22;;;;;;;10.27;5.83;;;;;;;;;;5039154;28;20446;-64
2022/01/19 12:27:00;;;;;;;22.00;10.30;;;;;;;;;;5072101;28;20927;-66
2022/01/19 12:29:33;;;;;;;17.00;9.00;;;;;;;;;;5076370;28;20558;-66
2022/01/19 12:32:00;;;;;;;21.77;9.90;;;;;;;;;;5071254;28;20957;-65
2022/01/19 12:34:39;;;;;;;23.33;10.63;;;;;;;;;;5056451;28;20448;-66
2022/01/19 12:37:06;;;;;;;17.13;8.57;;;;;;;;;;5067873;28;20464;-66
2022/01/19 12:39:34;;;;;;;16.30;8.77;;;;;;;;;;5046673;28;20760;-65
2022/01/19 12:42:05;;;;;;;15.03;8.30;;;;;;;;;;5076658;28;20440;-65
2022/01/19 12:44:35;;;;;;;15.17;6.20;;;;;;;;;;5072430;28;21166;-65
2022/01/19 12:47:04;;;;;;;15.50;7.10;;;;;;;;;;5068402;28;20986;-67
2022/01/19 12:49:31;;;;;;;15.93;8.67;;;;;;;;;;5039715;28;20520;-66
2022/01/19 12:51:58;;;;;;;15.57;7.97;;;;;;;;;;5050798;28;20437;-67
2022/01/19 12:54:28;;;;;;;10.30;5.77;;;;;;;;;;5050801;28;20437;-66
2022/01/19 12:57:02;;;;;;;17.53;9.43;;;;;;;;;;5044470;28;20491;-68
2022/01/19 12:59:30;;;;;;;13.50;6.77;;;;;;;;;;5070049;28;20440;-68
2022/01/19 13:01:57;;;;;;;15.30;7.90;;;;;;;;;;5052641;28;20447;-67
2022/01/19 13:04:27;;;;;;;11.93;5.77;;;;;;;;;;5053087;28;20482;-68
2022/01/19 13:07:20;;;;;;;19.43;9.50;;;;;;;;;;5070239;28;20485;-66
2022/01/19 13:10:07;;;;;;;16.27;7.73;;;;;;;;;;5090498;28;20432;-66
2022/01/19 13:12:37;;;;;;;19.53;10.30;;;;;;;;;;5071733;28;20968;-65
2022/01/19 13:15:04;;;;;;;12.90;6.50;;;;;;;;;;5069748;28;20432;-65
2022/01/19 13:17:44;;;;;;;11.43;4.93;;;;;;;;;;5049260;28;20590;-66
2022/01/19 13:20:16;;;;;;;13.53;7.20;;;;;;;;;;5067175;28;20489;-66
2022/01/19 13:22:54;;;;;;;15.03;8.20;;;;;;;;;;5067111;28;20437;-67
2022/01/19 13:25:28;;;;;;;12.93;6.20;;;;;;;;;;5068848;28;20434;-66
2022/01/19 13:27:55;;;;;;;13.57;7.47;;;;;;;;;;5050575;28;20965;-66
2022/01/19 13:30:23;;;;;;;15.33;8.03;;;;;;;;;;5068659;28;20417;-66
2022/01/19 13:32:49;;;;;;;15.13;8.50;;;;;;;;;;5050244;28;20447;-67
2022/01/19 13:35:16;;;;;;;15.07;8.37;;;;;;;;;;5068260;28;20431;-66
2022/01/19 13:37:48;;;;;;;13.87;8.07;;;;;;;;;;5060732;28;21027;-66
2022/01/19 13:40:16;;;;;;;16.30;8.60;;;;;;;;;;5031589;28;20466;-66
2022/01/19 13:42:43;;;;;;;12.40;8.03;;;;;;;;;;5048034;28;20785;-67
2022/01/19 13:45:14;;;;;;;13.17;8.53;;;;;;;;;;5048803;28;20465;-66
2022/01/19 13:48:06;;;;;;;17.07;9.93;;;;;;;;;;5048257;28;20952;-66
2022/01/19 13:50:33;;;;;;;18.53;9.43;;;;;;;;;;5048084;28;20425;-66
2022/01/19 13:53:00;;;;;;;13.50;8.20;;;;;;;;;;5030379;28;21203;-66
2022/01/19 13:55:27;;;;;;;15.20;9.47;;;;;;;;;;5052646;28;20447;-66
2022/01/19 13:58:06;;;;;;;15.43;9.27;;;;;;;;;;5067379;28;20456;-66
2022/01/19 14:00:34;;;;;;;12.17;6.67;;;;;;;;;;5067703;28;20839;-66
2022/01/19 14:03:03;;;;;;;11.43;6.13;;;;;;;;;;5068020;28;20535;-66
2022/01/19 14:05:39;;;;;;;9.90;6.60;;;;;;;;;;5067728;28;20424;-66
2022/01/19 14:08:06;;;;;;;14.80;7.13;;;;;;;;;;5067263;28;20516;-66
2022/01/19 14:10:46;;;;;;;11.83;5.50;;;;;;;;;;5067618;28;20424;-66
2022/01/19 14:13:43;;;;;;;13.53;6.53;;;;;;;;;;5048987;28;20506;-66
2022/01/19 14:16:20;;;;;;;15.00;7.10;;;;;;;;;;5023786;28;20797;-66
2022/01/19 14:19:05;;;;;;;16.97;7.80;;;;;;;;;;5047555;28;20441;-66
2022/01/19 14:21:32;;;;;;;13.83;7.33;;;;;;;;;;5047522;28;20951;-66
2022/01/19 14:23:59;;;;;;;13.17;7.67;;;;;;;;;;5048754;28;20503;-67
2022/01/19 14:26:26;;;;;;;15.00;7.03;;;;;;;;;;5067119;28;20433;-66
2022/01/19 14:29:12;;;;;;;17.93;8.33;;;;;;;;;;5049631;28;20436;-67
2022/01/19 14:31:49;;;;;;;18.30;9.33;;;;;;;;;;5067865;28;20440;-67
2022/01/19 14:34:36;;;;;;;14.90;8.03;;;;;;;;;;5067441;28;20471;-66
2022/01/19 14:37:12;;;;;;;14.30;7.57;;;;;;;;;;5067612;28;21025;-66
2022/01/19 14:39:46;;;;;;;16.10;7.43;;;;;;;;;;5067141;28;20466;-66
2022/01/19 14:42:13;;;;;;;19.57;10.40;;;;;;;;;;5068037;28;20456;-65
2022/01/19 14:44:47;;;;;;;18.80;9.47;;;;;;;;;;5066520;28;20436;-66
2022/01/19 14:47:35;;;;;;;16.40;8.80;;;;;;;;;;5047746;28;20446;-66
2022/01/19 14:50:15;;;;;;;15.50;6.50;;;;;;;;;;5053247;28;20853;-67
2022/01/19 14:52:43;;;;;;;13.47;6.53;;;;;;;;;;5018166;28;20463;-67
2022/01/19 14:55:10;;;;;;;13.30;5.67;;;;;;;;;;5045773;28;20482;-67
2022/01/19 14:57:37;;;;;;;15.70;8.10;;;;;;;;;;5063698;28;20529;-67
2022/01/19 15:00:06;;;;;;;12.37;7.33;;;;;;;;;;5016383;28;20577;-68
2022/01/19 15:02:33;;;;;;;17.33;8.37;;;;;;;;;;5050308;28;20547;-68
2022/01/19 15:05:00;;;;;;;8.13;4.00;;;;;;;;;;5055127;28;20478;-69
2022/01/19 15:07:26;;;;;;;20.00;9.07;;;;;;;;;;5065471;28;20470;-68
2022/01/19 15:09:53;;;;;;;20.40;8.87;;;;;;;;;;5069218;28;20982;-66
2022/01/19 15:12:20;;;;;;;22.27;7.63;;;;;;;;;;5070192;28;20952;-65
2022/01/19 15:14:49;;;;;;;20.87;10.13;;;;;;;;;;5075437;28;20437;-66
2022/01/19 15:17:16;;;;;;;17.63;7.93;;;;;;;;;;5071093;28;21052;-66
2022/01/19 15:19:43;;;;;;;21.30;10.60;;;;;;;;;;5046449;28;20445;-67
2022/01/19 15:22:10;;;;;;;23.37;10.10;;;;;;;;;;5052817;28;20482;-68
2022/01/19 15:24:37;;;;;;;24.67;12.03;;;;;;;;;;5050514;28;20424;-68
2022/01/19 15:27:04;;;;;;;28.83;11.33;;;;;;;;;;5053644;28;20435;-68
2022/01/19 15:29:30;;;;;;;18.83;9.03;;;;;;;;;;5072024;28;20525;-68
2022/01/19 15:31:57;;;;;;;25.43;12.80;;;;;;;;;;5076008;28;20539;-67
2022/01/19 15:34:24;;;;;;;29.87;12.50;;;;;;;;;;5070895;28;20443;-69
2022/01/19 15:36:51;;;;;;;20.07;9.87;;;;;;;;;;5056225;28;20431;-66
2022/01/19 15:39:17;;;;;;;19.07;10.50;;;;;;;;;;5053886;28;20460;-67
2022/01/19 15:41:44;;;;;;;29.67;12.57;;;;;;;;;;5055561;28;20421;-65
2022/01/19 15:44:12;;;;;;;18.57;8.80;;;;;;;;;;5072000;28;21126;-65
2022/01/19 15:46:39;;;;;;;18.20;8.43;;;;;;;;;;5070030;28;20462;-65
2022/01/19 15:49:07;;;;;;;18.23;9.87;;;;;;;;;;5075129;28;20439;-65
2022/01/19 15:51:39;;;;;;;18.63;8.70;;;;;;;;;;5056340;28;20444;-66
2022/01/19 15:54:05;;;;;;;18.47;8.90;;;;;;;;;;5071197;28;20808;-65
2022/01/19 15:56:32;;;;;;;19.43;10.23;;;;;;;;;;5062368;28;20451;-68
2022/01/19 15:58:59;;;;;;;20.03;11.07;;;;;;;;;;5071300;28;20471;-66
2022/01/19 16:01:26;;;;;;;21.63;11.60;;;;;;;;;;5070552;28;20455;-66
2022/01/19 16:03:53;;;;;;;24.10;9.50;;;;;;;;;;5073790;28;20840;-65
2022/01/19 16:06:20;;;;;;;22.97;11.97;;;;;;;;;;5053716;28;20435;-66
2022/01/19 16:08:46;;;;;;;18.43;9.67;;;;;;;;;;5074525;28;20964;-67
2022/01/19 16:11:13;;;;;;;15.97;8.27;;;;;;;;;;5071092;28;20434;-66
2022/01/19 16:13:39;;;;;;;16.77;9.10;;;;;;;;;;5072120;28;20451;-66
2022/01/19 16:16:06;;;;;;;20.50;9.33;;;;;;;;;;5057462;28;20451;-65
2022/01/19 16:18:33;;;;;;;18.60;9.17;;;;;;;;;;5073096;28;20475;-66
2022/01/19 16:21:20;;;;;;;13.13;7.33;;;;;;;;;;5060246;28;20443;-67
2022/01/19 16:26:34;;;;;;;21.00;11.13;;;;;;;;;;5077577;28;20427;-68
2022/01/19 16:29:01;;;;;;;17.23;8.90;;;;;;;;;;5068984;28;20526;-67
2022/01/19 16:31:27;;;;;;;21.23;10.50;;;;;;;;;;5064772;28;20443;-68
2022/01/19 16:33:55;;;;;;;15.50;6.97;;;;;;;;;;5071629;28;20438;-67
2022/01/19 16:36:23;;;;;;;12.60;6.73;;;;;;;;;;5072939;28;20557;-71
2022/01/19 16:38:49;;;;;;;20.90;9.30;;;;;;;;;;5082205;28;20990;-68
2022/01/19 16:41:20;;;;;;;22.00;9.87;;;;;;;;;;5066043;28;20491;-70
2022/01/19 16:43:48;;;;;;;22.70;10.57;;;;;;;;;;5049315;28;20440;-70
2022/01/19 16:46:38;;;;;;;27.80;13.53;;;;;;;;;;5049557;28;20447;-70
2022/01/19 16:49:07;;;;;;;17.67;7.73;;;;;;;;;;5049490;28;21252;-70
2022/01/19 16:51:35;;;;;;;15.87;7.87;;;;;;;;;;5061882;28;21150;-69
2022/01/19 16:54:03;;;;;;;25.70;11.53;;;;;;;;;;5049860;28;20425;-70
2022/01/19 16:56:34;;;;;;;22.30;10.83;;;;;;;;;;5057440;28;20437;-70
2022/01/19 16:59:02;;;;;;;21.97;10.17;;;;;;;;;;5048863;28;20484;-70
2022/01/19 17:01:30;;;;;;;28.97;12.53;;;;;;;;;;5067443;28;20437;-71